createdAt,value
2023-01-21T00:00:46.856Z,28.50
2023-01-21T00:01:46.863Z,23.90
2023-01-21T00:02:46.814Z,30.80
2023-01-21T00:03:46.859Z,33.10
2023-01-21T00:04:46.806Z,28.10
2023-01-21T00:05:46.814Z,28.70
2023-01-21T00:06:46.773Z,32.00
2023-01-21T00:07:46.781Z,32.60
2023-01-21T00:08:46.752Z,29.80
2023-01-21T00:09:46.751Z,26.80
2023-01-21T00:10:46.742Z,24.50
2023-01-21T00:11:46.754Z,24.70
2023-01-21T00:12:46.716Z,24.70
2023-01-21T00:13:46.713Z,32.00
2023-01-21T00:14:46.721Z,37.90
2023-01-21T00:15:46.740Z,31.30
2023-01-21T00:16:46.699Z,26.30
2023-01-21T00:17:46.670Z,31.70
2023-01-21T00:18:46.653Z,27.20
2023-01-21T00:19:46.651Z,23.40
2023-01-21T00:20:46.660Z,25.80
2023-01-21T00:21:46.663Z,29.80
2023-01-21T00:22:46.671Z,31.10
2023-01-21T00:23:46.606Z,24.60
2023-01-21T00:24:46.614Z,27.90
2023-01-21T00:25:46.581Z,23.20
2023-01-21T00:26:46.590Z,24.50
2023-01-21T00:27:46.574Z,30.00
2023-01-21T00:28:46.551Z,30.30
2023-01-21T00:29:46.543Z,24.50
2023-01-21T00:30:46.596Z,26.80
2023-01-21T00:31:46.666Z,31.00
2023-01-21T00:32:46.503Z,28.80
2023-01-21T00:33:46.498Z,29.20
2023-01-21T00:34:46.489Z,30.20
2023-01-21T00:35:46.481Z,27.50
2023-01-21T00:36:46.471Z,25.40
2023-01-21T00:37:46.471Z,27.20
2023-01-21T00:38:46.450Z,24.40
2023-01-21T00:39:46.427Z,25.50
2023-01-21T00:40:46.420Z,28.00
2023-01-21T00:41:46.434Z,25.00
2023-01-21T00:42:46.416Z,22.80
2023-01-21T00:43:46.421Z,22.40
2023-01-21T00:44:46.371Z,26.50
2023-01-21T00:45:46.388Z,26.80
2023-01-21T00:46:46.352Z,26.80
2023-01-21T00:47:46.369Z,19.60
2023-01-21T00:48:46.329Z,27.40
2023-01-21T00:49:46.339Z,22.60
2023-01-21T00:50:46.372Z,30.60
2023-01-21T00:51:46.299Z,23.30
2023-01-21T00:52:46.331Z,28.80
2023-01-21T00:53:46.327Z,22.00
2023-01-21T00:54:46.302Z,20.80
2023-01-21T00:55:46.267Z,27.30
2023-01-21T00:56:46.269Z,25.60
2023-01-21T00:57:46.238Z,22.60
2023-01-21T00:58:46.262Z,22.80
2023-01-21T00:59:46.246Z,19.90
2023-01-21T01:00:46.208Z,25.90
2023-01-21T01:01:46.234Z,20.50
2023-01-21T01:02:46.215Z,25.20
2023-01-21T01:03:46.180Z,25.10
2023-01-21T01:04:46.198Z,21.50
2023-01-21T01:05:46.159Z,23.40
2023-01-21T01:06:46.148Z,24.50
2023-01-21T01:07:46.139Z,21.30
2023-01-21T01:08:46.119Z,20.50
2023-01-21T01:09:46.138Z,26.20
2023-01-21T01:10:46.101Z,21.90
2023-01-21T01:11:46.089Z,26.10
2023-01-21T01:12:46.079Z,22.40
2023-01-21T01:13:46.079Z,22.60
2023-01-21T01:14:46.064Z,24.40
2023-01-21T01:15:46.098Z,28.40
2023-01-21T01:16:46.042Z,23.50
2023-01-21T01:17:46.033Z,22.80
2023-01-21T01:18:46.030Z,21.00
2023-01-21T01:19:46.037Z,24.70
2023-01-21T01:20:45.995Z,27.30
2023-01-21T01:21:45.985Z,24.20
2023-01-21T01:22:45.976Z,22.70
2023-01-21T01:23:45.970Z,23.60
2023-01-21T01:24:45.976Z,24.90
2023-01-21T01:25:45.949Z,23.80
2023-01-21T01:26:45.925Z,20.60
2023-01-21T01:27:45.926Z,25.50
2023-01-21T01:28:45.911Z,25.80
2023-01-21T01:29:45.946Z,23.90
2023-01-21T01:30:46.048Z,28.60
2023-01-21T01:31:45.983Z,29.80
2023-01-21T01:32:45.894Z,30.90
2023-01-21T01:33:45.866Z,25.00
2023-01-21T01:34:46.011Z,28.20
2023-01-21T01:35:45.864Z,29.00
2023-01-21T01:36:45.873Z,26.20
2023-01-21T01:37:45.860Z,27.50
2023-01-21T01:38:46.329Z,29.70
2023-01-21T01:39:45.867Z,23.80
2023-01-21T01:40:45.852Z,35.70
2023-01-21T01:41:45.947Z,29.60
2023-01-21T01:42:45.840Z,30.20
2023-01-21T01:43:45.775Z,28.20
2023-01-21T01:44:45.813Z,27.40
2023-01-21T01:45:45.829Z,29.90
2023-01-21T01:46:46.069Z,30.00
2023-01-21T01:47:45.806Z,30.40
2023-01-21T01:48:45.781Z,27.00
2023-01-21T01:49:47.210Z,24.60
2023-01-21T01:50:46.839Z,28.10
2023-01-21T01:51:45.670Z,27.10
2023-01-21T01:52:45.717Z,29.60
2023-01-21T01:53:45.695Z,31.60
2023-01-21T01:54:45.763Z,25.50
2023-01-21T01:55:45.706Z,30.60
2023-01-21T01:56:46.477Z,33.90
2023-01-21T01:57:45.686Z,29.30
2023-01-21T01:58:45.997Z,25.90
2023-01-21T01:59:45.613Z,27.50
2023-01-21T02:00:46.326Z,31.80
2023-01-21T02:01:45.647Z,27.50
2023-01-21T02:02:45.697Z,27.10
2023-01-21T02:03:45.633Z,29.20
2023-01-21T02:04:45.563Z,33.90
2023-01-21T02:05:46.193Z,33.60
2023-01-21T02:06:45.735Z,30.10
2023-01-21T02:07:45.694Z,29.50
2023-01-21T02:08:45.606Z,31.50
2023-01-21T02:09:45.862Z,35.70
2023-01-21T02:10:45.521Z,32.40
2023-01-21T02:11:45.556Z,31.10
2023-01-21T02:12:45.472Z,35.10
2023-01-21T02:13:45.473Z,33.20
2023-01-21T02:14:45.423Z,31.40
2023-01-21T02:15:45.563Z,30.90
2023-01-21T02:16:45.874Z,39.70
2023-01-21T02:17:45.621Z,32.50
2023-01-21T02:18:45.402Z,31.70
2023-01-21T02:19:45.373Z,34.30
2023-01-21T02:20:45.362Z,32.90
2023-01-21T02:21:45.371Z,31.90
2023-01-21T02:22:45.362Z,27.20
2023-01-21T02:23:45.341Z,25.10
2023-01-21T02:24:45.342Z,28.40
2023-01-21T02:25:45.412Z,31.30
2023-01-21T02:26:45.300Z,32.00
2023-01-21T02:27:45.310Z,27.60
2023-01-21T02:28:45.963Z,25.90
2023-01-21T02:29:45.286Z,29.40
2023-01-21T02:30:45.278Z,29.10
2023-01-21T02:31:45.261Z,25.90
2023-01-21T02:32:45.253Z,35.80
2023-01-21T02:33:45.258Z,34.20
2023-01-21T02:34:45.361Z,31.00
2023-01-21T02:35:45.211Z,31.90
2023-01-21T02:36:45.279Z,33.90
2023-01-21T02:37:45.189Z,31.50
2023-01-21T02:38:45.179Z,28.20
2023-01-21T02:39:45.162Z,27.50
2023-01-21T02:40:45.173Z,33.30
2023-01-21T02:41:45.183Z,29.30
2023-01-21T02:42:45.135Z,31.10
2023-01-21T02:43:45.163Z,33.50
2023-01-21T02:44:45.110Z,25.30
2023-01-21T02:45:45.183Z,31.90
2023-01-21T02:46:45.123Z,31.40
2023-01-21T02:47:45.108Z,31.40
2023-01-21T02:48:45.072Z,34.00
2023-01-21T02:49:45.079Z,34.20
2023-01-21T02:50:45.074Z,35.20
2023-01-21T02:51:45.091Z,35.90
2023-01-21T02:52:45.652Z,37.70
2023-01-21T02:53:45.030Z,36.40
2023-01-21T02:54:45.058Z,29.80
2023-01-21T02:55:45.000Z,27.60
2023-01-21T02:56:45.022Z,32.40
2023-01-21T02:57:45.028Z,25.70
2023-01-21T02:58:45.029Z,25.90
2023-01-21T02:59:44.981Z,31.10
2023-01-21T03:00:44.957Z,32.50
2023-01-21T03:01:45.085Z,33.40
2023-01-21T03:02:44.926Z,28.50
2023-01-21T03:03:44.917Z,31.10
2023-01-21T03:04:44.909Z,30.40
2023-01-21T03:05:45.071Z,35.80
2023-01-21T03:06:44.886Z,31.20
2023-01-21T03:07:44.878Z,27.50
2023-01-21T03:08:44.974Z,31.40
2023-01-21T03:09:44.856Z,31.80
2023-01-21T03:10:44.860Z,31.20
2023-01-21T03:11:44.830Z,34.00
2023-01-21T03:12:44.888Z,39.80
2023-01-21T03:13:44.811Z,37.40
2023-01-21T03:14:44.796Z,34.00
2023-01-21T03:15:44.809Z,38.70
2023-01-21T03:16:44.798Z,35.00
2023-01-21T03:17:44.773Z,33.40
2023-01-21T03:18:44.756Z,32.40
2023-01-21T03:19:44.753Z,28.60
2023-01-21T03:20:44.777Z,31.60
2023-01-21T03:21:44.732Z,37.70
2023-01-21T03:22:44.777Z,32.00
2023-01-21T03:23:52.510Z,28.30
2023-01-21T03:24:44.697Z,46.90
2023-01-21T03:25:44.692Z,37.00
2023-01-21T03:26:44.669Z,34.20
2023-01-21T03:27:44.713Z,31.10
2023-01-21T03:28:44.666Z,29.90
2023-01-21T03:29:44.656Z,34.50
2023-01-21T03:30:44.638Z,40.90
2023-01-21T03:31:44.665Z,33.00
2023-01-21T03:32:44.637Z,30.90
2023-01-21T03:33:46.654Z,36.00
2023-01-21T03:34:44.601Z,29.00
2023-01-21T03:35:44.596Z,33.50
2023-01-21T03:36:44.578Z,33.10
2023-01-21T03:37:44.570Z,35.80
2023-01-21T03:38:44.566Z,34.50
2023-01-21T03:39:44.555Z,35.10
2023-01-21T03:40:44.529Z,34.60
2023-01-21T03:41:44.516Z,32.60
2023-01-21T03:42:44.535Z,35.00
2023-01-21T03:43:44.511Z,31.70
2023-01-21T03:44:44.483Z,34.70
2023-01-21T03:45:44.644Z,32.70
2023-01-21T03:46:44.476Z,32.60
2023-01-21T03:47:44.475Z,34.00
2023-01-21T03:48:44.496Z,27.60
2023-01-21T03:49:44.434Z,33.00
2023-01-21T03:50:44.525Z,34.10
2023-01-21T03:51:44.406Z,34.80
2023-01-21T03:52:44.396Z,26.90
2023-01-21T03:53:44.439Z,29.30
2023-01-21T03:54:44.378Z,27.80
2023-01-21T03:55:44.366Z,29.00
2023-01-21T03:56:44.388Z,32.40
2023-01-21T03:57:44.384Z,32.10
2023-01-21T03:58:44.372Z,33.00
2023-01-21T03:59:44.336Z,33.70
2023-01-21T04:00:44.378Z,29.80
2023-01-21T04:01:44.319Z,34.80
2023-01-21T04:02:44.322Z,32.60
2023-01-21T04:03:44.309Z,26.20
2023-01-21T04:04:44.295Z,29.40
2023-01-21T04:05:44.270Z,27.70
2023-01-21T04:06:44.253Z,29.50
2023-01-21T04:07:44.244Z,31.30
2023-01-21T04:08:44.257Z,30.30
2023-01-21T04:09:44.221Z,31.50
2023-01-21T04:10:44.216Z,34.10
2023-01-21T04:11:44.191Z,31.70
2023-01-21T04:12:44.203Z,24.60
2023-01-21T04:13:44.191Z,30.60
2023-01-21T04:14:44.193Z,40.90
2023-01-21T04:15:44.183Z,30.50
2023-01-21T04:16:44.261Z,29.00
2023-01-21T04:17:44.124Z,31.60
2023-01-21T04:18:44.147Z,33.50
2023-01-21T04:19:44.115Z,32.40
2023-01-21T04:20:44.094Z,31.10
2023-01-21T04:21:44.115Z,28.80
2023-01-21T04:22:44.084Z,34.60
2023-01-21T04:23:44.088Z,36.60
2023-01-21T04:24:44.063Z,33.90
2023-01-21T04:25:44.081Z,28.80
2023-01-21T04:26:44.051Z,30.20
2023-01-21T04:27:44.024Z,27.20
2023-01-21T04:28:44.022Z,34.70
2023-01-21T04:29:44.009Z,29.60
2023-01-21T04:30:44.023Z,38.90
2023-01-21T04:31:44.081Z,26.60
2023-01-21T04:32:43.985Z,32.50
2023-01-21T04:33:43.963Z,32.90
2023-01-21T04:34:43.951Z,34.30
2023-01-21T04:35:43.950Z,29.70
2023-01-21T04:36:43.968Z,34.60
2023-01-21T04:37:43.920Z,25.70
2023-01-21T04:38:43.926Z,44.20
2023-01-21T04:39:43.902Z,32.50
2023-01-21T04:40:43.887Z,28.50
2023-01-21T04:41:43.903Z,33.00
2023-01-21T04:42:43.881Z,32.40
2023-01-21T04:43:43.871Z,31.40
2023-01-21T04:44:43.882Z,32.00
2023-01-21T04:45:43.851Z,27.60
2023-01-21T04:46:43.859Z,29.00
2023-01-21T04:47:43.837Z,30.00
2023-01-21T04:48:43.823Z,36.50
2023-01-21T04:49:43.795Z,28.20
2023-01-21T04:50:43.828Z,28.60
2023-01-21T04:51:43.775Z,40.70
2023-01-21T04:52:43.767Z,34.00
2023-01-21T04:53:43.777Z,33.00
2023-01-21T04:54:43.745Z,29.40
2023-01-21T04:55:43.734Z,28.80
2023-01-21T04:56:43.735Z,30.80
2023-01-21T04:57:43.712Z,32.00
2023-01-21T04:58:43.709Z,31.90
2023-01-21T04:59:43.712Z,24.90
2023-01-21T05:00:43.683Z,33.60
2023-01-21T05:01:43.680Z,29.20
2023-01-21T05:02:43.655Z,35.60
2023-01-21T05:03:43.675Z,29.30
2023-01-21T05:04:43.637Z,32.30
2023-01-21T05:05:43.624Z,29.60
2023-01-21T05:06:43.613Z,35.20
2023-01-21T05:07:43.613Z,33.90
2023-01-21T05:08:43.605Z,38.50
2023-01-21T05:09:43.601Z,29.70
2023-01-21T05:10:43.580Z,31.80
2023-01-21T05:11:43.556Z,30.60
2023-01-21T05:12:43.566Z,31.30
2023-01-21T05:13:43.532Z,27.10
2023-01-21T05:14:43.528Z,43.50
2023-01-21T05:15:43.562Z,30.90
2023-01-21T05:16:43.573Z,26.20
2023-01-21T05:17:43.524Z,30.90
2023-01-21T05:18:46.377Z,27.60
2023-01-21T05:19:43.459Z,34.00
2023-01-21T05:20:43.480Z,26.30
2023-01-21T05:21:43.449Z,34.70
2023-01-21T05:22:43.448Z,29.10
2023-01-21T05:23:43.432Z,29.10
2023-01-21T05:24:43.417Z,27.30
2023-01-21T05:25:43.408Z,29.30
2023-01-21T05:26:43.417Z,35.00
2023-01-21T05:27:43.389Z,30.20
2023-01-21T05:28:43.381Z,29.60
2023-01-21T05:29:43.367Z,25.40
2023-01-21T05:30:44.717Z,36.40
2023-01-21T05:31:43.408Z,38.80
2023-01-21T05:32:43.361Z,32.40
2023-01-21T05:33:43.324Z,34.00
2023-01-21T05:34:43.318Z,26.00
2023-01-21T05:35:43.330Z,27.80
2023-01-21T05:36:43.289Z,28.30
2023-01-21T05:37:43.301Z,28.00
2023-01-21T05:38:43.293Z,32.80
2023-01-21T05:39:43.259Z,27.70
2023-01-21T05:40:43.290Z,32.60
2023-01-21T05:41:43.244Z,26.70
2023-01-21T05:42:43.232Z,29.70
2023-01-21T05:43:43.216Z,29.60
2023-01-21T05:44:43.207Z,26.60
2023-01-21T05:45:43.196Z,35.90
2023-01-21T05:46:43.206Z,26.90
2023-01-21T05:47:43.177Z,29.90
2023-01-21T05:48:43.166Z,32.00
2023-01-21T05:49:43.181Z,33.50
2023-01-21T05:50:43.144Z,34.50
2023-01-21T05:51:43.146Z,30.50
2023-01-21T05:52:43.153Z,28.60
2023-01-21T05:53:43.107Z,28.60
2023-01-21T05:54:59.943Z,27.90
2023-01-21T05:55:44.102Z,30.40
2023-01-21T05:56:43.083Z,30.20
2023-01-21T05:57:43.076Z,26.80
2023-01-21T05:58:43.096Z,36.40
2023-01-21T05:59:43.048Z,35.00
2023-01-21T06:00:43.054Z,36.80
2023-01-21T06:01:43.038Z,32.40
2023-01-21T06:02:43.076Z,25.40
2023-01-21T06:03:43.048Z,31.90
2023-01-21T06:04:43.008Z,32.80
2023-01-21T06:05:43.005Z,26.50
2023-01-21T06:06:42.992Z,35.60
2023-01-21T06:07:42.977Z,33.50
2023-01-21T06:08:42.966Z,36.30
2023-01-21T06:09:42.960Z,25.10
2023-01-21T06:10:42.979Z,28.40
2023-01-21T06:11:42.926Z,31.90
2023-01-21T06:12:42.925Z,27.70
2023-01-21T06:13:42.929Z,25.30
2023-01-21T06:14:42.922Z,27.90
2023-01-21T06:15:43.006Z,28.80
2023-01-21T06:16:42.877Z,31.80
2023-01-21T06:17:42.869Z,39.90
2023-01-21T06:18:42.869Z,26.20
2023-01-21T06:19:42.845Z,35.00
2023-01-21T06:20:42.852Z,24.80
2023-01-21T06:21:42.850Z,31.50
2023-01-21T06:22:42.833Z,30.10
2023-01-21T06:23:42.807Z,37.30
2023-01-21T06:24:42.807Z,29.70
2023-01-21T06:25:42.812Z,30.10
2023-01-21T06:26:42.796Z,31.40
2023-01-21T06:27:42.766Z,33.90
2023-01-21T06:28:42.781Z,32.40
2023-01-21T06:29:42.761Z,30.40
2023-01-21T06:30:42.748Z,32.20
2023-01-21T06:31:42.881Z,31.50
2023-01-21T06:32:42.752Z,28.20
2023-01-21T06:33:42.704Z,32.80
2023-01-21T06:34:44.103Z,31.40
2023-01-21T06:35:42.695Z,31.10
2023-01-21T06:36:42.796Z,34.00
2023-01-21T06:37:42.706Z,31.10
2023-01-21T06:38:42.664Z,31.70
2023-01-21T06:39:42.647Z,28.60
2023-01-21T06:40:42.633Z,30.30
2023-01-21T06:41:42.620Z,32.50
2023-01-21T06:42:42.611Z,34.70
2023-01-21T06:43:42.617Z,37.30
2023-01-21T06:44:42.589Z,29.30
2023-01-21T06:45:42.591Z,37.70
2023-01-21T06:46:45.965Z,29.20
2023-01-21T06:47:43.561Z,34.60
2023-01-21T06:48:42.576Z,36.30
2023-01-21T06:49:42.543Z,31.10
2023-01-21T06:50:42.561Z,30.80
2023-01-21T06:51:42.513Z,33.40
2023-01-21T06:52:42.510Z,39.80
2023-01-21T06:53:42.503Z,29.60
2023-01-21T06:54:42.504Z,33.80
2023-01-21T06:55:42.480Z,31.90
2023-01-21T06:56:42.455Z,38.00
2023-01-21T06:57:42.457Z,33.70
2023-01-21T06:58:42.448Z,36.30
2023-01-21T06:59:42.437Z,34.20
2023-01-21T07:00:42.449Z,43.60
2023-01-21T07:01:42.461Z,29.60
2023-01-21T07:02:42.417Z,34.90
2023-01-21T07:03:42.401Z,36.40
2023-01-21T07:04:42.439Z,33.60
2023-01-21T07:05:42.384Z,30.90
2023-01-21T07:06:42.362Z,30.40
2023-01-21T07:07:42.368Z,35.90
2023-01-21T07:08:42.343Z,31.50
2023-01-21T07:09:42.342Z,37.30
2023-01-21T07:10:42.316Z,34.80
2023-01-21T07:11:42.304Z,35.30
2023-01-21T07:12:42.294Z,34.20
2023-01-21T07:13:42.273Z,35.20
2023-01-21T07:14:42.271Z,33.20
2023-01-21T07:15:42.338Z,37.30
2023-01-21T07:16:42.263Z,35.60
2023-01-21T07:17:42.238Z,28.80
2023-01-21T07:18:42.230Z,32.50
2023-01-21T07:19:42.211Z,33.40
2023-01-21T07:20:42.205Z,35.20
2023-01-21T07:21:42.235Z,35.00
2023-01-21T07:22:42.186Z,38.60
2023-01-21T07:23:42.164Z,40.10
2023-01-21T07:24:42.165Z,37.30
2023-01-21T07:25:42.141Z,41.80
2023-01-21T07:26:42.163Z,35.80
2023-01-21T07:27:42.133Z,30.80
2023-01-21T07:28:42.114Z,34.40
2023-01-21T07:29:42.102Z,35.90
2023-01-21T07:30:42.169Z,39.70
2023-01-21T07:31:42.152Z,33.00
2023-01-21T07:32:42.072Z,39.10
2023-01-21T07:33:42.059Z,38.60
2023-01-21T07:34:42.054Z,36.20
2023-01-21T07:35:42.028Z,32.60
2023-01-21T07:36:42.047Z,34.50
2023-01-21T07:37:42.014Z,38.80
2023-01-21T07:38:41.993Z,37.10
2023-01-21T07:39:41.985Z,38.20
2023-01-21T07:40:41.980Z,40.10
2023-01-21T07:41:41.986Z,42.60
2023-01-21T07:42:41.957Z,38.10
2023-01-21T07:43:41.970Z,40.90
2023-01-21T07:44:41.938Z,38.70
2023-01-21T07:45:41.919Z,37.70
2023-01-21T07:46:41.998Z,45.00
2023-01-21T07:47:41.900Z,32.60
2023-01-21T07:48:41.901Z,43.10
2023-01-21T07:49:41.871Z,35.70
2023-01-21T07:50:41.863Z,37.60
2023-01-21T07:51:41.850Z,38.90
2023-01-21T07:52:41.851Z,45.80
2023-01-21T07:53:41.886Z,40.70
2023-01-21T07:54:41.837Z,43.40
2023-01-21T07:55:41.813Z,41.90
2023-01-21T07:56:41.805Z,38.00
2023-01-21T07:57:41.810Z,40.90
2023-01-21T07:58:41.803Z,37.60
2023-01-21T07:59:41.762Z,37.60
2023-01-21T08:00:41.765Z,34.60
2023-01-21T08:01:41.827Z,36.40
2023-01-21T08:02:41.755Z,40.30
2023-01-21T08:03:41.722Z,43.20
2023-01-21T08:04:41.746Z,42.30
2023-01-21T08:05:41.712Z,41.20
2023-01-21T08:06:41.697Z,43.40
2023-01-21T08:07:41.684Z,35.80
2023-01-21T08:08:41.671Z,41.20
2023-01-21T08:09:41.698Z,38.10
2023-01-21T08:10:41.690Z,41.10
2023-01-21T08:11:41.629Z,40.60
2023-01-21T08:12:41.629Z,43.80
2023-01-21T08:13:41.613Z,42.20
2023-01-21T08:14:41.608Z,39.40
2023-01-21T08:15:41.628Z,38.10
2023-01-21T08:16:41.578Z,34.50
2023-01-21T08:17:41.571Z,42.50
2023-01-21T08:18:41.563Z,35.60
2023-01-21T08:19:41.543Z,38.90
2023-01-21T08:20:41.543Z,33.10
2023-01-21T08:21:41.550Z,43.70
2023-01-21T08:22:41.511Z,38.60
2023-01-21T08:23:41.513Z,39.30
2023-01-21T08:24:41.518Z,44.40
2023-01-21T08:25:41.478Z,41.70
2023-01-21T08:26:41.461Z,52.60
2023-01-21T08:27:41.465Z,46.80
2023-01-21T08:28:41.448Z,56.20
2023-01-21T08:29:41.428Z,48.00
2023-01-21T08:30:41.478Z,43.00
2023-01-21T08:31:41.437Z,40.50
2023-01-21T08:32:41.397Z,44.40
2023-01-21T08:33:41.389Z,40.90
2023-01-21T08:34:41.376Z,44.90
2023-01-21T08:35:41.400Z,42.40
2023-01-21T08:36:41.354Z,45.50
2023-01-21T08:37:41.353Z,33.00
2023-01-21T08:38:41.339Z,37.70
2023-01-21T08:39:41.329Z,34.80
2023-01-21T08:40:41.309Z,37.70
2023-01-21T08:41:41.319Z,43.50
2023-01-21T08:42:41.328Z,31.80
2023-01-21T08:43:41.298Z,37.30
2023-01-21T08:44:41.277Z,45.00
2023-01-21T08:45:41.266Z,35.90
2023-01-21T08:46:41.279Z,41.60
2023-01-21T08:47:41.238Z,39.20
2023-01-21T08:48:41.231Z,37.60
2023-01-21T08:49:41.212Z,35.70
2023-01-21T08:50:41.205Z,38.90
2023-01-21T08:51:41.219Z,34.80
2023-01-21T08:52:41.181Z,35.90
2023-01-21T08:53:41.178Z,38.30
2023-01-21T08:54:41.164Z,42.90
2023-01-21T08:55:41.147Z,39.70
2023-01-21T08:56:41.189Z,36.90
2023-01-21T08:57:41.127Z,31.40
2023-01-21T08:58:41.117Z,40.70
2023-01-21T08:59:41.119Z,41.70
2023-01-21T09:00:41.143Z,42.10
2023-01-21T09:01:41.157Z,37.70
2023-01-21T09:02:41.140Z,33.20
2023-01-21T09:03:41.067Z,42.20
2023-01-21T09:04:41.037Z,40.40
2023-01-21T09:05:41.058Z,38.90
2023-01-21T09:06:41.051Z,46.00
2023-01-21T09:07:41.089Z,47.50
2023-01-21T09:08:41.036Z,43.70
2023-01-21T09:09:40.997Z,44.40
2023-01-21T09:10:41.035Z,47.50
2023-01-21T09:11:41.006Z,44.20
2023-01-21T09:12:41.004Z,45.90
2023-01-21T09:13:41.014Z,37.60
2023-01-21T09:14:40.988Z,41.60
2023-01-21T09:15:40.931Z,36.70
2023-01-21T09:16:40.965Z,46.10
2023-01-21T09:17:40.906Z,35.90
2023-01-21T09:18:40.943Z,37.40
2023-01-21T09:19:40.957Z,33.80
2023-01-21T09:20:40.917Z,34.80
2023-01-21T09:21:40.885Z,31.30
2023-01-21T09:22:40.846Z,36.70
2023-01-21T09:23:40.891Z,38.50
2023-01-21T09:24:40.844Z,42.10
2023-01-21T09:25:40.828Z,42.10
2023-01-21T09:26:40.795Z,37.00
2023-01-21T09:27:40.795Z,39.30
2023-01-21T09:28:40.778Z,35.70
2023-01-21T09:29:40.809Z,31.70
2023-01-21T09:30:48.649Z,29.60
2023-01-21T09:31:40.776Z,32.20
2023-01-21T09:32:40.730Z,33.50
2023-01-21T09:33:40.722Z,34.80
2023-01-21T09:34:40.738Z,28.50
2023-01-21T09:35:40.724Z,28.40
2023-01-21T09:36:40.690Z,29.10
2023-01-21T09:37:40.692Z,30.50
2023-01-21T09:38:40.680Z,31.70
2023-01-21T09:39:40.706Z,33.10
2023-01-21T09:40:40.654Z,30.80
2023-01-21T09:41:40.639Z,37.60
2023-01-21T09:42:40.624Z,30.90
2023-01-21T09:43:40.630Z,25.60
2023-01-21T09:44:40.632Z,28.50
2023-01-21T09:45:40.616Z,34.10
2023-01-21T09:46:40.589Z,31.60
2023-01-21T09:47:40.574Z,26.00
2023-01-21T09:48:40.555Z,24.20
2023-01-21T09:49:40.573Z,32.20
2023-01-21T09:50:40.544Z,36.20
2023-01-21T09:51:40.549Z,28.10
2023-01-21T09:52:40.523Z,30.00
2023-01-21T09:53:40.513Z,27.90
2023-01-21T09:54:40.497Z,26.70
2023-01-21T09:55:40.504Z,29.40
2023-01-21T09:56:40.472Z,28.30
2023-01-21T09:57:40.464Z,31.80
2023-01-21T09:58:40.483Z,31.60
2023-01-21T09:59:40.443Z,25.30
2023-01-21T10:00:40.455Z,25.20
2023-01-21T10:01:40.443Z,30.50
2023-01-21T10:02:40.403Z,25.10
2023-01-21T10:03:40.393Z,23.50
2023-01-21T10:04:40.496Z,31.00
2023-01-21T10:05:40.375Z,26.90
2023-01-21T10:06:40.402Z,28.50
2023-01-21T10:07:40.364Z,30.60
2023-01-21T10:08:40.349Z,27.40
2023-01-21T10:09:40.338Z,30.40
2023-01-21T10:10:40.313Z,25.50
2023-01-21T10:11:40.323Z,29.50
2023-01-21T10:12:40.324Z,26.20
2023-01-21T10:13:40.299Z,29.60
2023-01-21T10:14:40.281Z,24.80
2023-01-21T10:15:40.270Z,26.70
2023-01-21T10:16:40.290Z,26.50
2023-01-21T10:17:40.242Z,25.50
2023-01-21T10:18:40.239Z,25.00
2023-01-21T10:19:40.231Z,28.60
2023-01-21T10:20:40.213Z,26.50
2023-01-21T10:21:40.214Z,27.90
2023-01-21T10:22:40.216Z,32.00
2023-01-21T10:23:42.708Z,27.50
2023-01-21T10:24:40.173Z,27.00
2023-01-21T10:25:40.182Z,22.50
2023-01-21T10:26:40.144Z,22.20
2023-01-21T10:27:40.162Z,27.90
2023-01-21T10:28:40.151Z,22.30
2023-01-21T10:29:40.125Z,27.40
2023-01-21T10:30:40.244Z,21.70
2023-01-21T10:31:40.178Z,25.50
2023-01-21T10:32:40.110Z,28.30
2023-01-21T10:33:40.082Z,24.30
2023-01-21T10:34:40.080Z,23.80
2023-01-21T10:35:40.083Z,24.50
2023-01-21T10:36:40.046Z,24.30
2023-01-21T10:37:40.032Z,21.40
2023-01-21T10:38:40.050Z,23.50
2023-01-21T10:39:40.012Z,25.90
2023-01-21T10:40:40.000Z,23.00
2023-01-21T10:41:39.990Z,19.50
2023-01-21T10:42:39.981Z,22.60
2023-01-21T10:43:39.990Z,26.00
2023-01-21T10:44:39.968Z,21.70
2023-01-21T10:45:39.960Z,19.80
2023-01-21T10:46:39.930Z,23.00
2023-01-21T10:47:39.935Z,21.90
2023-01-21T10:48:39.923Z,22.30
2023-01-21T10:49:39.946Z,19.50
2023-01-21T10:50:39.893Z,22.50
2023-01-21T10:51:39.895Z,20.10
2023-01-21T10:52:39.869Z,20.80
2023-01-21T10:53:39.878Z,22.70
2023-01-21T10:54:39.855Z,24.80
2023-01-21T10:55:39.863Z,21.70
2023-01-21T10:56:39.822Z,23.70
2023-01-21T10:57:39.820Z,21.60
2023-01-21T10:58:39.809Z,21.30
2023-01-21T10:59:39.801Z,25.90
2023-01-21T11:00:39.805Z,22.60
2023-01-21T11:01:39.854Z,24.70
2023-01-21T11:02:39.804Z,19.80
2023-01-21T11:03:39.753Z,20.10
2023-01-21T11:04:39.748Z,18.90
2023-01-21T11:05:39.765Z,20.30
2023-01-21T11:06:39.720Z,21.60
2023-01-21T11:07:39.711Z,22.90
2023-01-21T11:08:39.722Z,20.40
2023-01-21T11:09:39.693Z,21.90
2023-01-21T11:10:39.700Z,20.70
2023-01-21T11:11:39.680Z,23.50
2023-01-21T11:12:39.673Z,18.10
2023-01-21T11:13:39.642Z,23.00
2023-01-21T11:14:39.629Z,19.00
2023-01-21T11:15:39.640Z,22.80
2023-01-21T11:16:39.638Z,21.70
2023-01-21T11:17:39.601Z,23.10
2023-01-21T11:18:39.600Z,22.40
2023-01-21T11:19:39.589Z,19.90
2023-01-21T11:20:39.588Z,25.80
2023-01-21T11:21:39.583Z,22.40
2023-01-21T11:22:39.541Z,19.90
2023-01-21T11:23:39.557Z,23.90
2023-01-21T11:24:39.522Z,27.70
2023-01-21T11:25:39.515Z,21.80
2023-01-21T11:26:39.539Z,22.80
2023-01-21T11:27:39.490Z,25.50
2023-01-21T11:28:39.509Z,23.90
2023-01-21T11:29:39.496Z,23.10
2023-01-21T11:30:54.963Z,18.30
2023-01-21T11:31:40.556Z,24.00
2023-01-21T11:32:39.443Z,20.70
2023-01-21T11:33:39.463Z,20.50
2023-01-21T11:34:39.438Z,25.90
2023-01-21T11:35:39.409Z,19.10
2023-01-21T11:36:39.397Z,22.30
2023-01-21T11:37:39.397Z,22.40
2023-01-21T11:38:39.378Z,22.30
2023-01-21T11:39:39.401Z,23.50
2023-01-21T11:40:39.361Z,24.20
2023-01-21T11:41:39.340Z,20.30
2023-01-21T11:42:39.329Z,25.10
2023-01-21T11:43:39.322Z,21.60
2023-01-21T11:44:39.341Z,22.80
2023-01-21T11:45:39.305Z,19.80
2023-01-21T11:46:39.288Z,27.30
2023-01-21T11:47:39.286Z,24.30
2023-01-21T11:48:39.270Z,23.60
2023-01-21T11:49:39.260Z,25.50
2023-01-21T11:50:39.261Z,27.00
2023-01-21T11:51:39.241Z,26.30
2023-01-21T11:52:39.229Z,23.90
2023-01-21T11:53:39.210Z,26.40
2023-01-21T11:54:39.230Z,32.10
2023-01-21T11:55:39.210Z,30.10
2023-01-21T11:56:39.191Z,26.80
2023-01-21T11:57:39.189Z,25.40
2023-01-21T11:58:39.165Z,24.70
2023-01-21T11:59:39.173Z,31.10
2023-01-21T12:00:39.140Z,24.20
2023-01-21T12:01:39.132Z,26.30
2023-01-21T12:02:39.194Z,26.60
2023-01-21T12:03:39.133Z,25.40
2023-01-21T12:04:39.113Z,22.20
2023-01-21T12:05:39.080Z,23.90
2023-01-21T12:06:39.071Z,22.00
2023-01-21T12:07:39.062Z,23.80
2023-01-21T12:08:39.050Z,33.00
2023-01-21T12:09:39.045Z,26.20
2023-01-21T12:10:39.053Z,20.00
2023-01-21T12:11:39.019Z,18.60
2023-01-21T12:12:39.000Z,30.10
2023-01-21T12:13:38.988Z,24.10
2023-01-21T12:14:38.989Z,24.10
2023-01-21T12:15:39.059Z,25.10
2023-01-21T12:16:38.972Z,20.70
2023-01-21T12:17:40.149Z,22.90
2023-01-21T12:18:38.940Z,28.30
2023-01-21T12:19:38.933Z,24.70
2023-01-21T12:20:38.917Z,31.60
2023-01-21T12:21:38.942Z,29.50
2023-01-21T12:22:38.900Z,27.60
2023-01-21T12:23:38.889Z,27.20
2023-01-21T12:24:38.893Z,27.10
2023-01-21T12:25:38.864Z,29.80
2023-01-21T12:26:38.864Z,30.30
2023-01-21T12:27:38.868Z,26.40
2023-01-21T12:28:38.846Z,25.70
2023-01-21T12:29:38.851Z,26.80
2023-01-21T12:30:38.836Z,28.10
2023-01-21T12:31:38.855Z,27.90
2023-01-21T12:32:38.821Z,28.40
2023-01-21T12:33:38.773Z,27.40
2023-01-21T12:34:38.775Z,26.10
2023-01-21T12:35:38.775Z,24.10
2023-01-21T12:36:38.748Z,20.60
2023-01-21T12:37:38.758Z,24.50
2023-01-21T12:38:38.724Z,26.60
2023-01-21T12:39:38.720Z,21.50
2023-01-21T12:40:38.699Z,26.00
2023-01-21T12:41:38.701Z,23.00
2023-01-21T12:42:38.703Z,30.20
2023-01-21T12:43:38.691Z,26.60
2023-01-21T12:44:38.675Z,22.60
2023-01-21T12:45:38.642Z,27.70
2023-01-21T12:46:38.658Z,21.90
2023-01-21T12:47:38.625Z,23.70
2023-01-21T12:48:38.647Z,25.90
2023-01-21T12:49:38.600Z,23.80
2023-01-21T12:50:38.589Z,26.90
2023-01-21T12:51:38.582Z,27.30
2023-01-21T12:52:38.576Z,24.70